KAID/AID METAR and TAF weather

Enter ICAO airport designator
Station Type Date Time Source
KAID METAR 2021/04/13 22:55 UTC NOAA

KAID 132255Z AUTO 29010G14KT 10SM CLR 17/00 A3008 RMK AO2 T01700000


Station Type Date Time Source
KAID Decoded METAR 2021/04/13 22:55 UTC NOAA

Anderson Municipal, IN, United States (KAID) 40-07N 085-37W
Apr 13, 2021 - 06:55 PM EDT / 2021.04.13 2255 UTC
Wind: from the WNW (290 degrees) at 12 MPH (10 KT) gusting to 16 MPH (14 KT):0
Visibility: 10 mile(s):0
Sky conditions: clear
Temperature: 62.6 F (17.0 C)
Dew Point: 32.0 F (0.0 C)
Relative Humidity: 31%
Pressure (altimeter): 30.08 in. Hg (1018 hPa)
ob: KAID 132255Z AUTO 29010G14KT 10SM CLR 17/00 A3008 RMK AO2 T01700000
cycle: 23

Station Type Date Time Source
KAID TAF UTC NOAA

Error!

Example: see airport list